sensor_id;sensor_type;location;lat;lon;timestamp;temperature;humidity
20759;DHT22;10539;53.686;9.158;2023-07-29T00:02:09;20.90;99.90
20759;DHT22;10539;53.686;9.158;2023-07-29T00:04:35;20.90;99.90
20759;DHT22;10539;53.686;9.158;2023-07-29T00:07:01;20.90;99.90
20759;DHT22;10539;53.686;9.158;2023-07-29T00:09:27;20.80;99.90
20759;DHT22;10539;53.686;9.158;2023-07-29T00:11:52;20.80;99.90
20759;DHT22;10539;53.686;9.158;2023-07-29T00:14:18;20.80;99.90
20759;DHT22;10539;53.686;9.158;2023-07-29T00:16:44;20.80;99.90
20759;DHT22;10539;53.686;9.158;2023-07-29T00:19:09;20.80;99.90
20759;DHT22;10539;53.686;9.158;2023-07-29T00:21:35;20.90;99.90
20759;DHT22;10539;53.686;9.158;2023-07-29T00:24:01;20.90;99.90
20759;DHT22;10539;53.686;9.158;2023-07-29T00:26:27;21.00;99.90
20759;DHT22;10539;53.686;9.158;2023-07-29T00:28:58;21.00;99.90
20759;DHT22;10539;53.686;9.158;2023-07-29T00:31:24;21.00;99.90
20759;DHT22;10539;53.686;9.158;2023-07-29T00:33:49;21.00;99.90
20759;DHT22;10539;53.686;9.158;2023-07-29T00:36:15;21.00;99.90
20759;DHT22;10539;53.686;9.158;2023-07-29T00:38:41;21.10;99.90
20759;DHT22;10539;53.686;9.158;2023-07-29T00:41:07;21.10;99.90
20759;DHT22;10539;53.686;9.158;2023-07-29T00:43:33;21.10;99.90
20759;DHT22;10539;53.686;9.158;2023-07-29T00:46:00;21.20;99.90
20759;DHT22;10539;53.686;9.158;2023-07-29T00:48:26;21.10;99.90
20759;DHT22;10539;53.686;9.158;2023-07-29T00:50:52;21.10;99.90
20759;DHT22;10539;53.686;9.158;2023-07-29T00:53:18;21.00;99.90
20759;DHT22;10539;53.686;9.158;2023-07-29T00:55:43;20.90;99.90
20759;DHT22;10539;53.686;9.158;2023-07-29T00:58:10;20.90;99.90
20759;DHT22;10539;53.686;9.158;2023-07-29T01:00:36;20.80;99.90
20759;DHT22;10539;53.686;9.158;2023-07-29T01:03:02;20.70;99.90
20759;DHT22;10539;53.686;9.158;2023-07-29T01:05:50;20.70;99.90
20759;DHT22;10539;53.686;9.158;2023-07-29T01:09:01;20.60;99.90
20759;DHT22;10539;53.686;9.158;2023-07-29T01:14:34;20.50;99.90
20759;DHT22;10539;53.686;9.158;2023-07-29T01:17:04;20.50;99.90
20759;DHT22;10539;53.686;9.158;2023-07-29T01:20:01;20.40;99.90
20759;DHT22;10539;53.686;9.158;2023-07-29T01:22:32;20.50;99.90
20759;DHT22;10539;53.686;9.158;2023-07-29T01:24:59;20.50;99.90
20759;DHT22;10539;53.686;9.158;2023-07-29T01:27:25;20.50;99.90
20759;DHT22;10539;53.686;9.158;2023-07-29T01:29:53;20.50;99.90
20759;DHT22;10539;53.686;9.158;2023-07-29T01:35:15;20.50;99.90
20759;DHT22;10539;53.686;9.158;2023-07-29T01:37:49;20.50;99.90
20759;DHT22;10539;53.686;9.158;2023-07-29T01:40:17;20.50;99.90
20759;DHT22;10539;53.686;9.158;2023-07-29T01:42:43;20.40;99.90
20759;DHT22;10539;53.686;9.158;2023-07-29T01:45:11;20.40;99.90
20759;DHT22;10539;53.686;9.158;2023-07-29T01:47:36;20.40;99.90
20759;DHT22;10539;53.686;9.158;2023-07-29T01:50:06;20.40;99.90
20759;DHT22;10539;53.686;9.158;2023-07-29T01:52:32;20.40;99.90
20759;DHT22;10539;53.686;9.158;2023-07-29T01:54:58;20.40;99.90
20759;DHT22;10539;53.686;9.158;2023-07-29T01:57:24;20.40;99.90
20759;DHT22;10539;53.686;9.158;2023-07-29T01:59:49;20.40;99.90
20759;DHT22;10539;53.686;9.158;2023-07-29T02:02:15;20.30;99.90
20759;DHT22;10539;53.686;9.158;2023-07-29T02:04:41;20.30;99.90
20759;DHT22;10539;53.686;9.158;2023-07-29T02:07:08;20.30;99.90
20759;DHT22;10539;53.686;9.158;2023-07-29T02:09:34;20.30;99.90
20759;DHT22;10539;53.686;9.158;2023-07-29T02:11:59;20.30;99.90
20759;DHT22;10539;53.686;9.158;2023-07-29T02:14:25;20.30;99.90
20759;DHT22;10539;53.686;9.158;2023-07-29T02:16:51;20.30;99.90
20759;DHT22;10539;53.686;9.158;2023-07-29T02:19:17;20.30;99.90
20759;DHT22;10539;53.686;9.158;2023-07-29T02:21:42;20.30;99.90
20759;DHT22;10539;53.686;9.158;2023-07-29T02:24:08;20.30;99.90
20759;DHT22;10539;53.686;9.158;2023-07-29T02:26:34;20.30;99.90
20759;DHT22;10539;53.686;9.158;2023-07-29T02:29:00;20.30;99.90
20759;DHT22;10539;53.686;9.158;2023-07-29T02:31:26;20.30;99.90
20759;DHT22;10539;53.686;9.158;2023-07-29T02:33:52;20.40;99.90
20759;DHT22;10539;53.686;9.158;2023-07-29T02:36:19;20.40;99.90
20759;DHT22;10539;53.686;9.158;2023-07-29T02:38:44;20.40;99.90
20759;DHT22;10539;53.686;9.158;2023-07-29T02:41:10;20.40;99.90
20759;DHT22;10539;53.686;9.158;2023-07-29T02:43:38;20.40;99.90
20759;DHT22;10539;53.686;9.158;2023-07-29T02:46:04;20.40;99.90
20759;DHT22;10539;53.686;9.158;2023-07-29T02:48:30;20.40;99.90
20759;DHT22;10539;53.686;9.158;2023-07-29T02:50:56;20.40;99.90
20759;DHT22;10539;53.686;9.158;2023-07-29T02:53:22;20.50;99.90
20759;DHT22;10539;53.686;9.158;2023-07-29T02:55:48;20.50;99.90
20759;DHT22;10539;53.686;9.158;2023-07-29T02:58:14;20.60;99.90
20759;DHT22;10539;53.686;9.158;2023-07-29T03:00:40;20.60;99.90
20759;DHT22;10539;53.686;9.158;2023-07-29T03:03:08;20.50;99.90
20759;DHT22;10539;53.686;9.158;2023-07-29T03:05:34;20.50;99.90
20759;DHT22;10539;53.686;9.158;2023-07-29T03:08:00;20.50;99.90
20759;DHT22;10539;53.686;9.158;2023-07-29T03:10:26;20.50;99.90
20759;DHT22;10539;53.686;9.158;2023-07-29T03:12:54;20.50;99.90
20759;DHT22;10539;53.686;9.158;2023-07-29T03:15:23;20.50;99.90
20759;DHT22;10539;53.686;9.158;2023-07-29T03:17:50;20.50;99.90
20759;DHT22;10539;53.686;9.158;2023-07-29T03:20:16;20.50;99.90
20759;DHT22;10539;53.686;9.158;2023-07-29T03:22:43;20.50;99.90
20759;DHT22;10539;53.686;9.158;2023-07-29T03:25:11;20.40;99.90
20759;DHT22;10539;53.686;9.158;2023-07-29T03:27:37;20.40;99.90
20759;DHT22;10539;53.686;9.158;2023-07-29T03:30:04;20.30;99.90
20759;DHT22;10539;53.686;9.158;2023-07-29T03:32:34;20.30;99.90
20759;DHT22;10539;53.686;9.158;2023-07-29T03:35:01;20.20;99.90
20759;DHT22;10539;53.686;9.158;2023-07-29T03:37:27;20.20;99.90
20759;DHT22;10539;53.686;9.158;2023-07-29T03:39:53;20.10;99.90
20759;DHT22;10539;53.686;9.158;2023-07-29T03:42:19;20.10;99.90
20759;DHT22;10539;53.686;9.158;2023-07-29T03:44:45;20.10;99.90
20759;DHT22;10539;53.686;9.158;2023-07-29T03:47:11;20.10;99.90
20759;DHT22;10539;53.686;9.158;2023-07-29T03:49:36;20.10;99.90
20759;DHT22;10539;53.686;9.158;2023-07-29T03:52:02;20.10;99.90
20759;DHT22;10539;53.686;9.158;2023-07-29T03:54:28;20.10;99.90
20759;DHT22;10539;53.686;9.158;2023-07-29T03:56:54;20.00;99.90
20759;DHT22;10539;53.686;9.158;2023-07-29T03:59:19;20.00;99.90
20759;DHT22;10539;53.686;9.158;2023-07-29T04:01:48;20.00;99.90
20759;DHT22;10539;53.686;9.158;2023-07-29T04:04:13;20.00;99.90
20759;DHT22;10539;53.686;9.158;2023-07-29T04:06:39;19.90;99.90
20759;DHT22;10539;53.686;9.158;2023-07-29T04:09:05;19.90;99.90
20759;DHT22;10539;53.686;9.158;2023-07-29T04:11:30;19.90;99.90
20759;DHT22;10539;53.686;9.158;2023-07-29T04:13:56;19.90;99.90
20759;DHT22;10539;53.686;9.158;2023-07-29T04:16:22;19.80;99.90
20759;DHT22;10539;53.686;9.158;2023-07-29T04:18:48;19.80;99.90
20759;DHT22;10539;53.686;9.158;2023-07-29T04:21:14;19.80;99.90
20759;DHT22;10539;53.686;9.158;2023-07-29T04:23:40;19.80;99.90
20759;DHT22;10539;53.686;9.158;2023-07-29T04:26:06;19.80;99.90
20759;DHT22;10539;53.686;9.158;2023-07-29T04:28:31;19.80;99.90
20759;DHT22;10539;53.686;9.158;2023-07-29T04:30:57;19.80;99.90
20759;DHT22;10539;53.686;9.158;2023-07-29T04:33:23;19.80;99.90
20759;DHT22;10539;53.686;9.158;2023-07-29T04:35:48;19.80;99.90
20759;DHT22;10539;53.686;9.158;2023-07-29T04:38:15;19.70;99.90
20759;DHT22;10539;53.686;9.158;2023-07-29T04:40:40;19.70;99.90
20759;DHT22;10539;53.686;9.158;2023-07-29T04:43:07;19.70;99.90
20759;DHT22;10539;53.686;9.158;2023-07-29T04:45:32;19.70;99.90
20759;DHT22;10539;53.686;9.158;2023-07-29T04:47:58;19.70;99.90
20759;DHT22;10539;53.686;9.158;2023-07-29T04:50:24;19.70;99.90
20759;DHT22;10539;53.686;9.158;2023-07-29T04:52:50;19.80;99.90
20759;DHT22;10539;53.686;9.158;2023-07-29T04:55:16;19.80;99.90
20759;DHT22;10539;53.686;9.158;2023-07-29T04:57:42;19.80;99.90
20759;DHT22;10539;53.686;9.158;2023-07-29T05:00:08;19.80;99.90
20759;DHT22;10539;53.686;9.158;2023-07-29T05:02:33;19.90;99.90
20759;DHT22;10539;53.686;9.158;2023-07-29T05:04:59;19.90;99.90
20759;DHT22;10539;53.686;9.158;2023-07-29T05:07:25;20.00;99.90
20759;DHT22;10539;53.686;9.158;2023-07-29T05:09:51;20.00;99.90
20759;DHT22;10539;53.686;9.158;2023-07-29T05:12:16;20.00;99.90
20759;DHT22;10539;53.686;9.158;2023-07-29T05:14:42;20.00;99.90
20759;DHT22;10539;53.686;9.158;2023-07-29T05:17:08;20.10;99.90
20759;DHT22;10539;53.686;9.158;2023-07-29T05:19:33;20.10;99.90
20759;DHT22;10539;53.686;9.158;2023-07-29T05:21:59;20.10;99.90
20759;DHT22;10539;53.686;9.158;2023-07-29T05:24:25;20.10;99.90
20759;DHT22;10539;53.686;9.158;2023-07-29T05:26:50;20.10;99.90
20759;DHT22;10539;53.686;9.158;2023-07-29T05:29:16;20.10;99.90
20759;DHT22;10539;53.686;9.158;2023-07-29T05:31:42;20.10;99.90
20759;DHT22;10539;53.686;9.158;2023-07-29T05:34:07;20.10;99.90
20759;DHT22;10539;53.686;9.158;2023-07-29T05:36:34;20.20;99.90
20759;DHT22;10539;53.686;9.158;2023-07-29T05:38:59;20.20;99.90
20759;DHT22;10539;53.686;9.158;2023-07-29T05:41:25;20.20;99.90
20759;DHT22;10539;53.686;9.158;2023-07-29T05:43:53;20.20;99.90
20759;DHT22;10539;53.686;9.158;2023-07-29T05:46:19;20.20;99.90
20759;DHT22;10539;53.686;9.158;2023-07-29T05:48:44;20.20;99.90
20759;DHT22;10539;53.686;9.158;2023-07-29T05:51:10;20.20;99.90
20759;DHT22;10539;53.686;9.158;2023-07-29T05:53:36;20.20;99.90
20759;DHT22;10539;53.686;9.158;2023-07-29T05:56:02;20.20;99.90
20759;DHT22;10539;53.686;9.158;2023-07-29T05:58:28;20.20;99.90
20759;DHT22;10539;53.686;9.158;2023-07-29T06:00:57;20.20;99.90
20759;DHT22;10539;53.686;9.158;2023-07-29T06:03:23;20.20;99.90
20759;DHT22;10539;53.686;9.158;2023-07-29T06:05:49;20.20;99.90
20759;DHT22;10539;53.686;9.158;2023-07-29T06:08:15;20.30;99.90
20759;DHT22;10539;53.686;9.158;2023-07-29T06:10:41;20.30;99.90
20759;DHT22;10539;53.686;9.158;2023-07-29T06:13:07;20.30;99.90
20759;DHT22;10539;53.686;9.158;2023-07-29T06:15:33;20.30;99.90
20759;DHT22;10539;53.686;9.158;2023-07-29T06:17:58;20.30;99.90
20759;DHT22;10539;53.686;9.158;2023-07-29T06:20:24;20.30;99.90
20759;DHT22;10539;53.686;9.158;2023-07-29T06:22:50;20.30;99.90
20759;DHT22;10539;53.686;9.158;2023-07-29T06:25:15;20.30;99.90
20759;DHT22;10539;53.686;9.158;2023-07-29T06:27:41;20.30;99.90
20759;DHT22;10539;53.686;9.158;2023-07-29T06:30:07;20.40;99.90
20759;DHT22;10539;53.686;9.158;2023-07-29T06:32:34;20.40;99.90
20759;DHT22;10539;53.686;9.158;2023-07-29T06:34:59;20.50;99.90
20759;DHT22;10539;53.686;9.158;2023-07-29T06:37:25;20.60;99.90
20759;DHT22;10539;53.686;9.158;2023-07-29T06:39:51;20.70;99.90
20759;DHT22;10539;53.686;9.158;2023-07-29T06:42:16;20.80;99.90
20759;DHT22;10539;53.686;9.158;2023-07-29T06:44:42;20.90;99.90
20759;DHT22;10539;53.686;9.158;2023-07-29T06:47:11;20.90;99.90
20759;DHT22;10539;53.686;9.158;2023-07-29T06:49:37;20.90;99.90
20759;DHT22;10539;53.686;9.158;2023-07-29T06:52:03;21.00;99.90
20759;DHT22;10539;53.686;9.158;2023-07-29T06:54:29;21.00;99.90
20759;DHT22;10539;53.686;9.158;2023-07-29T06:56:55;21.00;99.90
20759;DHT22;10539;53.686;9.158;2023-07-29T06:59:20;21.00;99.90
20759;DHT22;10539;53.686;9.158;2023-07-29T07:01:46;21.00;99.90
20759;DHT22;10539;53.686;9.158;2023-07-29T07:04:12;21.00;99.90
20759;DHT22;10539;53.686;9.158;2023-07-29T07:06:38;21.10;99.90
20759;DHT22;10539;53.686;9.158;2023-07-29T07:09:03;21.10;99.90
20759;DHT22;10539;53.686;9.158;2023-07-29T07:11:29;21.10;99.90
20759;DHT22;10539;53.686;9.158;2023-07-29T07:13:55;21.10;99.90
20759;DHT22;10539;53.686;9.158;2023-07-29T07:16:21;21.20;99.90
20759;DHT22;10539;53.686;9.158;2023-07-29T07:18:47;21.30;99.90
20759;DHT22;10539;53.686;9.158;2023-07-29T07:21:12;21.40;99.90
20759;DHT22;10539;53.686;9.158;2023-07-29T07:23:41;21.50;99.90
20759;DHT22;10539;53.686;9.158;2023-07-29T07:26:07;21.70;99.90
20759;DHT22;10539;53.686;9.158;2023-07-29T07:28:33;21.90;99.90
20759;DHT22;10539;53.686;9.158;2023-07-29T07:30:58;22.00;99.90
20759;DHT22;10539;53.686;9.158;2023-07-29T07:33:24;22.10;99.90
20759;DHT22;10539;53.686;9.158;2023-07-29T07:35:50;22.10;99.90
20759;DHT22;10539;53.686;9.158;2023-07-29T07:38:16;22.10;99.90
20759;DHT22;10539;53.686;9.158;2023-07-29T07:40:43;22.10;99.90
20759;DHT22;10539;53.686;9.158;2023-07-29T07:43:08;22.00;99.90
20759;DHT22;10539;53.686;9.158;2023-07-29T07:45:35;22.10;99.90
20759;DHT22;10539;53.686;9.158;2023-07-29T07:48:01;22.10;99.90
20759;DHT22;10539;53.686;9.158;2023-07-29T07:50:31;22.10;99.90
20759;DHT22;10539;53.686;9.158;2023-07-29T07:52:57;22.20;99.90
20759;DHT22;10539;53.686;9.158;2023-07-29T07:55:23;22.30;99.90
20759;DHT22;10539;53.686;9.158;2023-07-29T07:57:49;22.30;99.90
20759;DHT22;10539;53.686;9.158;2023-07-29T08:00:15;22.30;99.90
20759;DHT22;10539;53.686;9.158;2023-07-29T08:02:41;22.30;99.90
20759;DHT22;10539;53.686;9.158;2023-07-29T08:05:07;22.40;99.90
20759;DHT22;10539;53.686;9.158;2023-07-29T08:07:33;22.40;99.90
20759;DHT22;10539;53.686;9.158;2023-07-29T08:09:58;22.40;99.90
20759;DHT22;10539;53.686;9.158;2023-07-29T08:12:25;22.40;99.90
20759;DHT22;10539;53.686;9.158;2023-07-29T08:14:50;22.60;99.90
20759;DHT22;10539;53.686;9.158;2023-07-29T08:17:16;22.70;99.90
20759;DHT22;10539;53.686;9.158;2023-07-29T08:19:42;22.70;99.90
20759;DHT22;10539;53.686;9.158;2023-07-29T08:22:07;22.90;99.90
20759;DHT22;10539;53.686;9.158;2023-07-29T08:24:33;23.00;99.90
20759;DHT22;10539;53.686;9.158;2023-07-29T08:26:59;23.10;99.90
20759;DHT22;10539;53.686;9.158;2023-07-29T08:29:25;23.20;99.90
20759;DHT22;10539;53.686;9.158;2023-07-29T08:31:51;23.20;99.90
20759;DHT22;10539;53.686;9.158;2023-07-29T08:34:17;23.10;99.90
20759;DHT22;10539;53.686;9.158;2023-07-29T08:36:43;23.10;99.90
20759;DHT22;10539;53.686;9.158;2023-07-29T08:39:08;23.10;99.90
20759;DHT22;10539;53.686;9.158;2023-07-29T08:44:20;23.10;99.90
20759;DHT22;10539;53.686;9.158;2023-07-29T08:46:48;23.10;99.90
20759;DHT22;10539;53.686;9.158;2023-07-29T08:49:15;23.20;99.90
20759;DHT22;10539;53.686;9.158;2023-07-29T08:51:46;23.30;99.90
20759;DHT22;10539;53.686;9.158;2023-07-29T08:54:13;23.30;99.90
20759;DHT22;10539;53.686;9.158;2023-07-29T08:56:43;23.30;99.90
20759;DHT22;10539;53.686;9.158;2023-07-29T08:59:10;23.20;99.90
20759;DHT22;10539;53.686;9.158;2023-07-29T09:01:39;23.00;99.90
20759;DHT22;10539;53.686;9.158;2023-07-29T09:04:05;23.10;99.90
20759;DHT22;10539;53.686;9.158;2023-07-29T09:06:31;23.20;99.90
20759;DHT22;10539;53.686;9.158;2023-07-29T09:08:58;23.30;99.90
20759;DHT22;10539;53.686;9.158;2023-07-29T09:11:25;23.40;99.90
20759;DHT22;10539;53.686;9.158;2023-07-29T09:13:51;23.60;99.90
20759;DHT22;10539;53.686;9.158;2023-07-29T09:16:19;23.80;99.90
20759;DHT22;10539;53.686;9.158;2023-07-29T09:18:48;23.90;99.90
20759;DHT22;10539;53.686;9.158;2023-07-29T09:21:17;24.00;99.90
20759;DHT22;10539;53.686;9.158;2023-07-29T09:23:44;24.00;99.90
20759;DHT22;10539;53.686;9.158;2023-07-29T09:26:10;24.00;99.90
20759;DHT22;10539;53.686;9.158;2023-07-29T09:28:38;24.00;99.90
20759;DHT22;10539;53.686;9.158;2023-07-29T09:31:05;24.00;99.90
20759;DHT22;10539;53.686;9.158;2023-07-29T09:33:35;24.00;99.90
20759;DHT22;10539;53.686;9.158;2023-07-29T09:36:09;24.00;99.90
20759;DHT22;10539;53.686;9.158;2023-07-29T09:38:35;24.10;99.90
20759;DHT22;10539;53.686;9.158;2023-07-29T09:41:02;24.20;99.90
20759;DHT22;10539;53.686;9.158;2023-07-29T09:43:32;24.20;99.90
20759;DHT22;10539;53.686;9.158;2023-07-29T09:46:02;24.20;99.90
20759;DHT22;10539;53.686;9.158;2023-07-29T09:48:33;24.20;99.90
20759;DHT22;10539;53.686;9.158;2023-07-29T09:50:59;24.30;99.90
20759;DHT22;10539;53.686;9.158;2023-07-29T09:53:25;24.30;99.90
20759;DHT22;10539;53.686;9.158;2023-07-29T09:55:53;24.40;99.90
20759;DHT22;10539;53.686;9.158;2023-07-29T09:58:26;24.40;99.90
20759;DHT22;10539;53.686;9.158;2023-07-29T10:00:52;24.50;99.90
20759;DHT22;10539;53.686;9.158;2023-07-29T10:03:21;24.50;99.90
20759;DHT22;10539;53.686;9.158;2023-07-29T10:05:48;24.40;99.90
20759;DHT22;10539;53.686;9.158;2023-07-29T10:08:14;24.30;99.90
20759;DHT22;10539;53.686;9.158;2023-07-29T10:10:43;24.20;99.90
20759;DHT22;10539;53.686;9.158;2023-07-29T10:13:10;24.20;99.90
20759;DHT22;10539;53.686;9.158;2023-07-29T10:15:36;24.20;99.90
20759;DHT22;10539;53.686;9.158;2023-07-29T10:18:02;24.30;99.90
20759;DHT22;10539;53.686;9.158;2023-07-29T10:20:30;24.30;99.90
20759;DHT22;10539;53.686;9.158;2023-07-29T10:22:59;24.40;99.90
20759;DHT22;10539;53.686;9.158;2023-07-29T10:25:35;24.60;99.90
20759;DHT22;10539;53.686;9.158;2023-07-29T10:28:07;24.70;99.90
20759;DHT22;10539;53.686;9.158;2023-07-29T10:30:33;24.90;99.90
20759;DHT22;10539;53.686;9.158;2023-07-29T10:33:04;25.00;99.90
20759;DHT22;10539;53.686;9.158;2023-07-29T10:35:32;25.00;99.90
20759;DHT22;10539;53.686;9.158;2023-07-29T10:37:59;25.00;99.90
20759;DHT22;10539;53.686;9.158;2023-07-29T10:40:25;25.00;99.90
20759;DHT22;10539;53.686;9.158;2023-07-29T10:43:10;25.00;99.90
20759;DHT22;10539;53.686;9.158;2023-07-29T10:45:37;24.90;99.90
20759;DHT22;10539;53.686;9.158;2023-07-29T10:48:09;24.90;99.90
20759;DHT22;10539;53.686;9.158;2023-07-29T10:50:35;24.90;99.90
20759;DHT22;10539;53.686;9.158;2023-07-29T10:53:01;25.00;99.90
20759;DHT22;10539;53.686;9.158;2023-07-29T10:55:33;25.00;99.90
20759;DHT22;10539;53.686;9.158;2023-07-29T11:00:32;25.00;99.90
20759;DHT22;10539;53.686;9.158;2023-07-29T11:03:16;25.20;99.90
20759;DHT22;10539;53.686;9.158;2023-07-29T11:05:52;25.40;99.90
20759;DHT22;10539;53.686;9.158;2023-07-29T11:08:29;25.40;99.90
20759;DHT22;10539;53.686;9.158;2023-07-29T11:11:07;25.30;99.90
20759;DHT22;10539;53.686;9.158;2023-07-29T11:13:36;25.10;99.90
20759;DHT22;10539;53.686;9.158;2023-07-29T11:16:03;24.90;99.90
20759;DHT22;10539;53.686;9.158;2023-07-29T11:18:31;24.80;99.90
20759;DHT22;10539;53.686;9.158;2023-07-29T11:20:58;24.80;99.90
20759;DHT22;10539;53.686;9.158;2023-07-29T11:23:31;24.80;99.90
20759;DHT22;10539;53.686;9.158;2023-07-29T11:25:57;24.70;99.90
20759;DHT22;10539;53.686;9.158;2023-07-29T11:28:24;24.80;99.90
20759;DHT22;10539;53.686;9.158;2023-07-29T11:30:51;24.80;99.90
20759;DHT22;10539;53.686;9.158;2023-07-29T11:33:19;24.80;99.90
20759;DHT22;10539;53.686;9.158;2023-07-29T11:35:45;24.90;99.90
20759;DHT22;10539;53.686;9.158;2023-07-29T11:38:18;25.00;99.90
20759;DHT22;10539;53.686;9.158;2023-07-29T11:40:54;25.10;99.90
20759;DHT22;10539;53.686;9.158;2023-07-29T11:43:20;25.20;99.90
20759;DHT22;10539;53.686;9.158;2023-07-29T11:45:46;25.20;99.90
20759;DHT22;10539;53.686;9.158;2023-07-29T11:48:12;25.30;99.90
20759;DHT22;10539;53.686;9.158;2023-07-29T11:50:37;25.30;99.90
20759;DHT22;10539;53.686;9.158;2023-07-29T11:53:03;25.40;99.90
20759;DHT22;10539;53.686;9.158;2023-07-29T11:55:30;25.50;99.90
20759;DHT22;10539;53.686;9.158;2023-07-29T11:57:56;25.60;99.90
20759;DHT22;10539;53.686;9.158;2023-07-29T12:00:22;25.70;99.90
20759;DHT22;10539;53.686;9.158;2023-07-29T12:02:49;25.80;99.90
20759;DHT22;10539;53.686;9.158;2023-07-29T12:05:17;25.80;99.90
20759;DHT22;10539;53.686;9.158;2023-07-29T12:07:44;25.80;99.90
20759;DHT22;10539;53.686;9.158;2023-07-29T12:10:10;25.80;99.90
20759;DHT22;10539;53.686;9.158;2023-07-29T12:12:45;25.80;99.90
20759;DHT22;10539;53.686;9.158;2023-07-29T12:15:11;25.90;99.90
20759;DHT22;10539;53.686;9.158;2023-07-29T12:17:42;25.90;99.90
20759;DHT22;10539;53.686;9.158;2023-07-29T12:20:09;26.10;99.90
20759;DHT22;10539;53.686;9.158;2023-07-29T12:22:36;26.20;99.90
20759;DHT22;10539;53.686;9.158;2023-07-29T12:25:03;26.30;99.90
20759;DHT22;10539;53.686;9.158;2023-07-29T12:27:30;26.40;99.90
20759;DHT22;10539;53.686;9.158;2023-07-29T12:29:56;26.40;99.90
20759;DHT22;10539;53.686;9.158;2023-07-29T12:32:25;26.40;99.90
20759;DHT22;10539;53.686;9.158;2023-07-29T12:34:53;26.40;99.90
20759;DHT22;10539;53.686;9.158;2023-07-29T12:37:19;26.30;99.90
20759;DHT22;10539;53.686;9.158;2023-07-29T12:39:45;26.30;99.90
20759;DHT22;10539;53.686;9.158;2023-07-29T12:42:11;26.30;99.90
20759;DHT22;10539;53.686;9.158;2023-07-29T12:44:38;26.30;99.90
20759;DHT22;10539;53.686;9.158;2023-07-29T12:47:05;26.40;99.90
20759;DHT22;10539;53.686;9.158;2023-07-29T12:49:31;26.30;99.90
20759;DHT22;10539;53.686;9.158;2023-07-29T12:51:58;26.30;99.90
20759;DHT22;10539;53.686;9.158;2023-07-29T12:54:24;26.20;99.90
20759;DHT22;10539;53.686;9.158;2023-07-29T12:56:49;26.20;99.90
20759;DHT22;10539;53.686;9.158;2023-07-29T12:59:15;26.20;99.90
20759;DHT22;10539;53.686;9.158;2023-07-29T13:01:41;26.30;99.90
20759;DHT22;10539;53.686;9.158;2023-07-29T13:04:08;26.30;99.90
20759;DHT22;10539;53.686;9.158;2023-07-29T13:06:34;26.30;99.90
20759;DHT22;10539;53.686;9.158;2023-07-29T13:09:00;26.40;99.90
20759;DHT22;10539;53.686;9.158;2023-07-29T13:11:26;26.30;99.90
20759;DHT22;10539;53.686;9.158;2023-07-29T13:13:52;26.30;99.90
20759;DHT22;10539;53.686;9.158;2023-07-29T13:16:17;26.20;99.90
20759;DHT22;10539;53.686;9.158;2023-07-29T13:18:44;26.10;99.90
20759;DHT22;10539;53.686;9.158;2023-07-29T13:21:10;26.00;99.90
20759;DHT22;10539;53.686;9.158;2023-07-29T13:23:35;26.10;99.90
20759;DHT22;10539;53.686;9.158;2023-07-29T13:26:01;26.20;99.90
20759;DHT22;10539;53.686;9.158;2023-07-29T13:28:27;26.30;99.90
20759;DHT22;10539;53.686;9.158;2023-07-29T13:30:53;26.50;99.90
20759;DHT22;10539;53.686;9.158;2023-07-29T13:33:19;26.50;99.90
20759;DHT22;10539;53.686;9.158;2023-07-29T13:35:45;26.50;99.90
20759;DHT22;10539;53.686;9.158;2023-07-29T13:38:10;26.50;99.90
20759;DHT22;10539;53.686;9.158;2023-07-29T13:40:36;26.50;99.90
20759;DHT22;10539;53.686;9.158;2023-07-29T13:43:02;26.50;99.90
20759;DHT22;10539;53.686;9.158;2023-07-29T13:45:28;26.50;99.90
20759;DHT22;10539;53.686;9.158;2023-07-29T13:47:54;26.60;99.90
20759;DHT22;10539;53.686;9.158;2023-07-29T13:50:20;26.50;99.90
20759;DHT22;10539;53.686;9.158;2023-07-29T13:52:45;26.50;99.90
20759;DHT22;10539;53.686;9.158;2023-07-29T13:55:11;26.40;99.90
20759;DHT22;10539;53.686;9.158;2023-07-29T13:57:37;26.40;99.90
20759;DHT22;10539;53.686;9.158;2023-07-29T14:00:05;26.50;99.90
20759;DHT22;10539;53.686;9.158;2023-07-29T14:02:31;26.60;99.90
20759;DHT22;10539;53.686;9.158;2023-07-29T14:04:57;26.60;99.90
20759;DHT22;10539;53.686;9.158;2023-07-29T14:07:23;26.60;99.90
20759;DHT22;10539;53.686;9.158;2023-07-29T14:09:49;26.50;99.90
20759;DHT22;10539;53.686;9.158;2023-07-29T14:12:14;26.60;99.90
20759;DHT22;10539;53.686;9.158;2023-07-29T14:14:41;26.60;99.90
20759;DHT22;10539;53.686;9.158;2023-07-29T14:17:07;26.70;99.90
20759;DHT22;10539;53.686;9.158;2023-07-29T14:19:37;26.70;99.90
20759;DHT22;10539;53.686;9.158;2023-07-29T14:22:03;26.60;99.90
20759;DHT22;10539;53.686;9.158;2023-07-29T14:24:29;26.50;99.90
20759;DHT22;10539;53.686;9.158;2023-07-29T14:26:54;26.60;99.90
20759;DHT22;10539;53.686;9.158;2023-07-29T14:29:20;26.50;99.90
20759;DHT22;10539;53.686;9.158;2023-07-29T14:31:46;26.60;99.90
20759;DHT22;10539;53.686;9.158;2023-07-29T14:34:11;26.70;99.90
20759;DHT22;10539;53.686;9.158;2023-07-29T14:36:37;26.70;99.90
20759;DHT22;10539;53.686;9.158;2023-07-29T14:39:03;26.70;99.90
20759;DHT22;10539;53.686;9.158;2023-07-29T14:41:30;26.60;99.90
20759;DHT22;10539;53.686;9.158;2023-07-29T14:43:56;26.50;99.90
20759;DHT22;10539;53.686;9.158;2023-07-29T14:46:23;26.40;99.90
20759;DHT22;10539;53.686;9.158;2023-07-29T14:48:48;26.30;99.90
20759;DHT22;10539;53.686;9.158;2023-07-29T14:51:14;26.20;99.90
20759;DHT22;10539;53.686;9.158;2023-07-29T14:53:40;26.10;99.90
20759;DHT22;10539;53.686;9.158;2023-07-29T14:56:06;26.00;99.90
20759;DHT22;10539;53.686;9.158;2023-07-29T14:58:32;26.00;99.90
20759;DHT22;10539;53.686;9.158;2023-07-29T15:00:58;26.00;99.90
20759;DHT22;10539;53.686;9.158;2023-07-29T15:03:24;25.90;99.90
20759;DHT22;10539;53.686;9.158;2023-07-29T15:05:50;25.70;99.90
20759;DHT22;10539;53.686;9.158;2023-07-29T15:08:16;25.20;99.90
20759;DHT22;10539;53.686;9.158;2023-07-29T15:10:45;24.40;99.90
20759;DHT22;10539;53.686;9.158;2023-07-29T15:13:11;23.60;99.90
20759;DHT22;10539;53.686;9.158;2023-07-29T15:15:41;23.10;99.90
20759;DHT22;10539;53.686;9.158;2023-07-29T15:18:07;22.80;99.90
20759;DHT22;10539;53.686;9.158;2023-07-29T15:20:33;22.60;99.90
20759;DHT22;10539;53.686;9.158;2023-07-29T15:22:58;22.60;99.90
20759;DHT22;10539;53.686;9.158;2023-07-29T15:25:24;22.60;99.90
20759;DHT22;10539;53.686;9.158;2023-07-29T15:27:50;22.60;99.90
20759;DHT22;10539;53.686;9.158;2023-07-29T15:30:15;22.70;99.90
20759;DHT22;10539;53.686;9.158;2023-07-29T15:32:41;22.80;99.90
20759;DHT22;10539;53.686;9.158;2023-07-29T15:35:08;23.00;99.90
20759;DHT22;10539;53.686;9.158;2023-07-29T15:37:33;23.10;99.90
20759;DHT22;10539;53.686;9.158;2023-07-29T15:39:59;23.20;99.90